MET'MAP v2.0
soon released !

Expected late october,
this new version will be
more efficient, smarter,
and hosted on a brand new
server x3 powerfull...
...and still free !


Not compatible ?
Try the mobile version !

LOG IN : | Subscribe | Disclaimer | Who is Orbifly ? |
ICAO code :
Legend : VFR Marginal VFR IFR Intensive IFR Very Intensive IFR
Visi :
Ceiling :
>= 8 km
>= 3000ft
5 to 8 km
1000 to 3000 ft
1500m to 5 km
500 to 1000 ft
800 to 1500m
200 to 500 ft
< 800m
< 200 ft

METAR - LEBZ Badajoz - 24 Oct 2020 20:14 UTC - Data Source NOAA   


- Airport Elevation : 609 ft
- IATA code : BJZ
- No reported NOTAMs.


LEBZ - Badajoz

Latest METAR recorded : 2015/08/11 08:00 LEBZ 110800Z 26007KT 230V290 CAVOK 21/14 Q1014
TAF TAF LEBZ
Valid from the 24 at 18:00 until the 25 at 18:00 UTC


241700Z 2418/2518 25005KT CAVOK TX20/2515Z TN10/2506Z
BECMG 2508/2510 23015KT
PROB40
TEMPO 2504/2509 BKN012
PROB40
TEMPO 2512/2518 23015G25KT 4000 RA BKN014

Source NOAA


MET'MAP, your aeronautical weather chart ! - Copyright ORBIFLY December 2007

Programming & Development : Alexandra Zaïnal
Co-Developer : Marc-Olivier Méhu
Technical & hardware support : Manuel Goepfert
Concept & Financing : Baudouin d'Aumeries